sensor_id;sensor_type;location;lat;lon;timestamp;P1;durP1;ratioP1;P2;durP2;ratioP2
56670;SDS011;42545;50.054;8.306;2023-07-22T00:01:40;0.80;;;0.80;;
56670;SDS011;42545;50.054;8.306;2023-07-22T00:04:07;0.80;;;0.80;;
56670;SDS011;42545;50.054;8.306;2023-07-22T00:06:35;0.63;;;0.63;;
56670;SDS011;42545;50.054;8.306;2023-07-22T00:09:04;0.95;;;0.88;;
56670;SDS011;42545;50.054;8.306;2023-07-22T00:11:31;0.80;;;0.80;;
56670;SDS011;42545;50.054;8.306;2023-07-22T00:13:58;0.80;;;0.80;;
56670;SDS011;42545;50.054;8.306;2023-07-22T00:16:25;1.00;;;0.70;;
56670;SDS011;42545;50.054;8.306;2023-07-22T00:18:54;0.68;;;0.68;;
56670;SDS011;42545;50.054;8.306;2023-07-22T00:21:21;0.60;;;0.60;;
56670;SDS011;42545;50.054;8.306;2023-07-22T00:23:48;0.73;;;0.73;;
56670;SDS011;42545;50.054;8.306;2023-07-22T00:26:17;0.52;;;0.52;;
56670;SDS011;42545;50.054;8.306;2023-07-22T00:28:43;0.93;;;0.82;;
56670;SDS011;42545;50.054;8.306;2023-07-22T00:31:10;0.50;;;0.50;;
56670;SDS011;42545;50.054;8.306;2023-07-22T00:33:37;0.60;;;0.60;;
56670;SDS011;42545;50.054;8.306;2023-07-22T00:36:04;0.60;;;0.60;;
56670;SDS011;42545;50.054;8.306;2023-07-22T00:38:31;0.60;;;0.60;;
56670;SDS011;42545;50.054;8.306;2023-07-22T00:40:57;0.70;;;0.70;;
56670;SDS011;42545;50.054;8.306;2023-07-22T00:43:26;0.80;;;0.80;;
56670;SDS011;42545;50.054;8.306;2023-07-22T00:45:52;0.77;;;0.77;;
56670;SDS011;42545;50.054;8.306;2023-07-22T00:48:19;1.23;;;1.00;;
56670;SDS011;42545;50.054;8.306;2023-07-22T00:50:47;1.70;;;1.20;;
56670;SDS011;42545;50.054;8.306;2023-07-22T00:53:13;1.52;;;1.20;;
56670;SDS011;42545;50.054;8.306;2023-07-22T00:55:40;1.20;;;1.10;;
56670;SDS011;42545;50.054;8.306;2023-07-22T00:58:08;1.30;;;1.20;;
56670;SDS011;42545;50.054;8.306;2023-07-22T01:00:36;1.30;;;1.20;;
56670;SDS011;42545;50.054;8.306;2023-07-22T01:03:03;1.40;;;1.30;;
56670;SDS011;42545;50.054;8.306;2023-07-22T01:05:31;1.63;;;1.30;;
56670;SDS011;42545;50.054;8.306;2023-07-22T01:08:00;1.10;;;1.00;;
56670;SDS011;42545;50.054;8.306;2023-07-22T01:10:27;1.60;;;1.10;;
56670;SDS011;42545;50.054;8.306;2023-07-22T01:12:55;1.10;;;0.95;;
56670;SDS011;42545;50.054;8.306;2023-07-22T01:15:22;1.30;;;1.20;;
56670;SDS011;42545;50.054;8.306;2023-07-22T01:17:52;1.00;;;0.90;;
56670;SDS011;42545;50.054;8.306;2023-07-22T01:20:21;0.85;;;0.85;;
56670;SDS011;42545;50.054;8.306;2023-07-22T01:22:52;1.00;;;1.00;;
56670;SDS011;42545;50.054;8.306;2023-07-22T01:25:20;1.05;;;0.90;;
56670;SDS011;42545;50.054;8.306;2023-07-22T01:27:48;1.00;;;0.90;;
56670;SDS011;42545;50.054;8.306;2023-07-22T01:30:15;0.85;;;0.85;;
56670;SDS011;42545;50.054;8.306;2023-07-22T01:32:42;0.90;;;0.80;;
56670;SDS011;42545;50.054;8.306;2023-07-22T01:35:09;0.88;;;0.88;;
56670;SDS011;42545;50.054;8.306;2023-07-22T01:37:36;0.80;;;0.80;;
56670;SDS011;42545;50.054;8.306;2023-07-22T01:40:06;0.80;;;0.80;;
56670;SDS011;42545;50.054;8.306;2023-07-22T01:42:37;1.30;;;0.98;;
56670;SDS011;42545;50.054;8.306;2023-07-22T01:45:04;1.00;;;0.90;;
56670;SDS011;42545;50.054;8.306;2023-07-22T01:47:33;0.80;;;0.80;;
56670;SDS011;42545;50.054;8.306;2023-07-22T01:50:00;1.13;;;0.80;;
56670;SDS011;42545;50.054;8.306;2023-07-22T01:52:27;1.15;;;1.00;;
56670;SDS011;42545;50.054;8.306;2023-07-22T01:54:54;0.70;;;0.70;;
56670;SDS011;42545;50.054;8.306;2023-07-22T01:57:23;0.70;;;0.70;;
56670;SDS011;42545;50.054;8.306;2023-07-22T01:59:50;1.15;;;0.90;;
56670;SDS011;42545;50.054;8.306;2023-07-22T02:02:17;0.70;;;0.70;;
56670;SDS011;42545;50.054;8.306;2023-07-22T02:04:43;0.85;;;0.85;;
56670;SDS011;42545;50.054;8.306;2023-07-22T02:07:10;0.82;;;0.82;;
56670;SDS011;42545;50.054;8.306;2023-07-22T02:09:37;0.80;;;0.77;;
56670;SDS011;42545;50.054;8.306;2023-07-22T02:12:04;0.70;;;0.70;;
56670;SDS011;42545;50.054;8.306;2023-07-22T02:14:34;0.93;;;0.80;;
56670;SDS011;42545;50.054;8.306;2023-07-22T02:17:02;1.20;;;0.90;;
56670;SDS011;42545;50.054;8.306;2023-07-22T02:19:28;0.60;;;0.60;;
56670;SDS011;42545;50.054;8.306;2023-07-22T02:21:55;0.73;;;0.73;;
56670;SDS011;42545;50.054;8.306;2023-07-22T02:24:22;0.70;;;0.70;;
56670;SDS011;42545;50.054;8.306;2023-07-22T02:26:49;0.70;;;0.70;;
56670;SDS011;42545;50.054;8.306;2023-07-22T02:29:17;0.68;;;0.68;;
56670;SDS011;42545;50.054;8.306;2023-07-22T02:31:46;0.65;;;0.65;;
56670;SDS011;42545;50.054;8.306;2023-07-22T02:34:13;0.63;;;0.63;;
56670;SDS011;42545;50.054;8.306;2023-07-22T02:36:41;0.70;;;0.70;;
56670;SDS011;42545;50.054;8.306;2023-07-22T02:39:08;0.70;;;0.70;;
56670;SDS011;42545;50.054;8.306;2023-07-22T02:41:35;0.70;;;0.60;;
56670;SDS011;42545;50.054;8.306;2023-07-22T02:44:02;0.70;;;0.65;;
56670;SDS011;42545;50.054;8.306;2023-07-22T02:46:30;0.70;;;0.70;;
56670;SDS011;42545;50.054;8.306;2023-07-22T02:48:59;0.60;;;0.60;;
56670;SDS011;42545;50.054;8.306;2023-07-22T02:51:26;1.05;;;0.90;;
56670;SDS011;42545;50.054;8.306;2023-07-22T02:53:54;0.65;;;0.65;;
56670;SDS011;42545;50.054;8.306;2023-07-22T02:56:21;0.85;;;0.80;;
56670;SDS011;42545;50.054;8.306;2023-07-22T02:58:49;0.70;;;0.70;;
56670;SDS011;42545;50.054;8.306;2023-07-22T03:01:16;0.80;;;0.80;;
56670;SDS011;42545;50.054;8.306;2023-07-22T03:03:43;0.98;;;0.88;;
56670;SDS011;42545;50.054;8.306;2023-07-22T03:06:11;1.10;;;1.00;;
56670;SDS011;42545;50.054;8.306;2023-07-22T03:08:38;1.13;;;1.02;;
56670;SDS011;42545;50.054;8.306;2023-07-22T03:11:06;1.20;;;1.10;;
56670;SDS011;42545;50.054;8.306;2023-07-22T03:13:32;1.20;;;0.90;;
56670;SDS011;42545;50.054;8.306;2023-07-22T03:16:00;1.30;;;1.10;;
56670;SDS011;42545;50.054;8.306;2023-07-22T03:18:29;1.05;;;0.90;;
56670;SDS011;42545;50.054;8.306;2023-07-22T03:20:56;1.48;;;1.10;;
56670;SDS011;42545;50.054;8.306;2023-07-22T03:23:24;1.15;;;1.05;;
56670;SDS011;42545;50.054;8.306;2023-07-22T03:25:51;1.13;;;1.00;;
56670;SDS011;42545;50.054;8.306;2023-07-22T03:28:18;1.27;;;1.17;;
56670;SDS011;42545;50.054;8.306;2023-07-22T03:30:45;0.88;;;0.88;;
56670;SDS011;42545;50.054;8.306;2023-07-22T03:33:12;1.02;;;0.93;;
56670;SDS011;42545;50.054;8.306;2023-07-22T03:35:39;0.90;;;0.90;;
56670;SDS011;42545;50.054;8.306;2023-07-22T03:38:06;0.85;;;0.85;;
56670;SDS011;42545;50.054;8.306;2023-07-22T03:40:35;0.90;;;0.90;;
56670;SDS011;42545;50.054;8.306;2023-07-22T03:43:02;1.40;;;1.13;;
56670;SDS011;42545;50.054;8.306;2023-07-22T03:45:30;1.27;;;1.17;;
56670;SDS011;42545;50.054;8.306;2023-07-22T03:47:57;1.58;;;1.20;;
56670;SDS011;42545;50.054;8.306;2023-07-22T03:50:25;1.77;;;1.50;;
56670;SDS011;42545;50.054;8.306;2023-07-22T03:52:53;1.17;;;1.05;;
56670;SDS011;42545;50.054;8.306;2023-07-22T03:55:20;1.38;;;1.27;;
56670;SDS011;42545;50.054;8.306;2023-07-22T03:57:48;2.00;;;1.80;;
56670;SDS011;42545;50.054;8.306;2023-07-22T04:00:15;2.25;;;2.05;;
56670;SDS011;42545;50.054;8.306;2023-07-22T04:02:42;2.88;;;2.10;;
56670;SDS011;42545;50.054;8.306;2023-07-22T04:05:10;2.35;;;2.08;;
56670;SDS011;42545;50.054;8.306;2023-07-22T04:07:37;2.45;;;2.03;;
56670;SDS011;42545;50.054;8.306;2023-07-22T04:10:05;2.35;;;2.00;;
56670;SDS011;42545;50.054;8.306;2023-07-22T04:12:32;2.42;;;2.00;;
56670;SDS011;42545;50.054;8.306;2023-07-22T04:15:00;2.75;;;2.00;;
56670;SDS011;42545;50.054;8.306;2023-07-22T04:17:27;2.10;;;1.90;;
56670;SDS011;42545;50.054;8.306;2023-07-22T04:19:54;2.40;;;2.10;;
56670;SDS011;42545;50.054;8.306;2023-07-22T04:22:21;2.25;;;1.83;;
56670;SDS011;42545;50.054;8.306;2023-07-22T04:24:48;2.88;;;1.88;;
56670;SDS011;42545;50.054;8.306;2023-07-22T04:27:15;2.90;;;2.30;;
56670;SDS011;42545;50.054;8.306;2023-07-22T04:29:42;2.15;;;1.83;;
56670;SDS011;42545;50.054;8.306;2023-07-22T04:32:10;2.90;;;2.28;;
56670;SDS011;42545;50.054;8.306;2023-07-22T04:34:38;3.58;;;2.50;;
56670;SDS011;42545;50.054;8.306;2023-07-22T04:37:04;3.53;;;2.70;;
56670;SDS011;42545;50.054;8.306;2023-07-22T04:39:31;3.53;;;2.53;;
56670;SDS011;42545;50.054;8.306;2023-07-22T04:41:58;4.03;;;2.38;;
56670;SDS011;42545;50.054;8.306;2023-07-22T04:44:25;3.10;;;2.30;;
56670;SDS011;42545;50.054;8.306;2023-07-22T04:46:52;2.78;;;2.13;;
56670;SDS011;42545;50.054;8.306;2023-07-22T04:49:20;2.78;;;2.15;;
56670;SDS011;42545;50.054;8.306;2023-07-22T04:51:47;2.00;;;1.80;;
56670;SDS011;42545;50.054;8.306;2023-07-22T04:54:15;2.42;;;1.73;;
56670;SDS011;42545;50.054;8.306;2023-07-22T04:56:43;2.20;;;1.80;;
56670;SDS011;42545;50.054;8.306;2023-07-22T04:59:09;1.75;;;1.50;;
56670;SDS011;42545;50.054;8.306;2023-07-22T05:01:39;2.00;;;1.48;;
56670;SDS011;42545;50.054;8.306;2023-07-22T05:04:06;1.77;;;1.25;;
56670;SDS011;42545;50.054;8.306;2023-07-22T05:06:35;1.75;;;1.50;;
56670;SDS011;42545;50.054;8.306;2023-07-22T05:09:01;2.50;;;2.08;;
56670;SDS011;42545;50.054;8.306;2023-07-22T05:11:28;3.03;;;2.13;;
56670;SDS011;42545;50.054;8.306;2023-07-22T05:13:55;2.10;;;1.50;;
56670;SDS011;42545;50.054;8.306;2023-07-22T05:16:22;2.45;;;2.10;;
56670;SDS011;42545;50.054;8.306;2023-07-22T05:18:49;2.47;;;2.20;;
56670;SDS011;42545;50.054;8.306;2023-07-22T05:21:16;2.40;;;1.92;;
56670;SDS011;42545;50.054;8.306;2023-07-22T05:23:45;2.38;;;2.00;;
56670;SDS011;42545;50.054;8.306;2023-07-22T05:26:12;2.25;;;1.85;;
56670;SDS011;42545;50.054;8.306;2023-07-22T05:28:38;2.58;;;2.10;;
56670;SDS011;42545;50.054;8.306;2023-07-22T05:31:06;2.17;;;1.88;;
56670;SDS011;42545;50.054;8.306;2023-07-22T05:33:33;2.85;;;1.92;;
56670;SDS011;42545;50.054;8.306;2023-07-22T05:36:00;2.03;;;1.70;;
56670;SDS011;42545;50.054;8.306;2023-07-22T05:38:27;2.05;;;1.73;;
56670;SDS011;42545;50.054;8.306;2023-07-22T05:40:55;2.25;;;1.73;;
56670;SDS011;42545;50.054;8.306;2023-07-22T05:43:22;2.28;;;1.92;;
56670;SDS011;42545;50.054;8.306;2023-07-22T05:45:49;1.95;;;1.67;;
56670;SDS011;42545;50.054;8.306;2023-07-22T05:48:17;2.90;;;2.45;;
56670;SDS011;42545;50.054;8.306;2023-07-22T05:50:44;3.30;;;2.58;;
56670;SDS011;42545;50.054;8.306;2023-07-22T05:53:11;3.80;;;2.78;;
56670;SDS011;42545;50.054;8.306;2023-07-22T05:55:41;2.38;;;1.95;;
56670;SDS011;42545;50.054;8.306;2023-07-22T05:58:16;2.45;;;1.92;;
56670;SDS011;42545;50.054;8.306;2023-07-22T06:00:43;2.20;;;2.00;;
56670;SDS011;42545;50.054;8.306;2023-07-22T06:03:10;3.25;;;1.90;;
56670;SDS011;42545;50.054;8.306;2023-07-22T06:05:37;2.45;;;1.90;;
56670;SDS011;42545;50.054;8.306;2023-07-22T06:08:05;2.70;;;2.10;;
56670;SDS011;42545;50.054;8.306;2023-07-22T06:10:32;2.13;;;1.80;;
56670;SDS011;42545;50.054;8.306;2023-07-22T06:12:59;2.60;;;1.98;;
56670;SDS011;42545;50.054;8.306;2023-07-22T06:15:27;1.90;;;1.52;;
56670;SDS011;42545;50.054;8.306;2023-07-22T06:17:54;2.20;;;1.80;;
56670;SDS011;42545;50.054;8.306;2023-07-22T06:20:21;1.98;;;1.70;;
56670;SDS011;42545;50.054;8.306;2023-07-22T06:22:49;3.53;;;2.40;;
56670;SDS011;42545;50.054;8.306;2023-07-22T06:25:16;2.40;;;2.00;;
56670;SDS011;42545;50.054;8.306;2023-07-22T06:27:43;2.10;;;1.67;;
56670;SDS011;42545;50.054;8.306;2023-07-22T06:30:10;2.30;;;1.90;;
56670;SDS011;42545;50.054;8.306;2023-07-22T06:32:39;1.98;;;1.70;;
56670;SDS011;42545;50.054;8.306;2023-07-22T06:35:06;2.13;;;1.63;;
56670;SDS011;42545;50.054;8.306;2023-07-22T06:37:34;2.20;;;1.63;;
56670;SDS011;42545;50.054;8.306;2023-07-22T06:40:01;2.30;;;1.73;;
56670;SDS011;42545;50.054;8.306;2023-07-22T06:42:29;2.22;;;1.92;;
56670;SDS011;42545;50.054;8.306;2023-07-22T06:44:57;3.20;;;2.03;;
56670;SDS011;42545;50.054;8.306;2023-07-22T06:47:23;2.70;;;2.00;;
56670;SDS011;42545;50.054;8.306;2023-07-22T06:49:52;2.63;;;1.70;;
56670;SDS011;42545;50.054;8.306;2023-07-22T06:52:19;1.90;;;1.70;;
56670;SDS011;42545;50.054;8.306;2023-07-22T06:54:46;2.28;;;1.92;;
56670;SDS011;42545;50.054;8.306;2023-07-22T06:57:13;2.88;;;2.47;;
56670;SDS011;42545;50.054;8.306;2023-07-22T06:59:40;2.22;;;2.00;;
56670;SDS011;42545;50.054;8.306;2023-07-22T07:02:06;2.25;;;1.95;;
56670;SDS011;42545;50.054;8.306;2023-07-22T07:04:33;3.00;;;2.05;;
56670;SDS011;42545;50.054;8.306;2023-07-22T07:07:02;2.85;;;2.33;;
56670;SDS011;42545;50.054;8.306;2023-07-22T07:09:30;4.00;;;2.90;;
56670;SDS011;42545;50.054;8.306;2023-07-22T07:11:56;3.78;;;2.83;;
56670;SDS011;42545;50.054;8.306;2023-07-22T07:14:23;3.72;;;3.10;;
56670;SDS011;42545;50.054;8.306;2023-07-22T07:16:51;3.03;;;2.30;;
56670;SDS011;42545;50.054;8.306;2023-07-22T07:19:18;4.03;;;3.03;;
56670;SDS011;42545;50.054;8.306;2023-07-22T07:21:45;2.35;;;2.00;;
56670;SDS011;42545;50.054;8.306;2023-07-22T07:24:13;4.18;;;2.53;;
56670;SDS011;42545;50.054;8.306;2023-07-22T07:26:40;2.97;;;2.60;;
56670;SDS011;42545;50.054;8.306;2023-07-22T07:29:07;3.40;;;2.20;;
56670;SDS011;42545;50.054;8.306;2023-07-22T07:31:36;2.90;;;2.22;;
56670;SDS011;42545;50.054;8.306;2023-07-22T07:34:04;2.75;;;2.00;;
56670;SDS011;42545;50.054;8.306;2023-07-22T07:36:31;3.05;;;2.60;;
56670;SDS011;42545;50.054;8.306;2023-07-22T07:38:58;2.80;;;2.45;;
56670;SDS011;42545;50.054;8.306;2023-07-22T07:41:27;2.72;;;2.30;;
56670;SDS011;42545;50.054;8.306;2023-07-22T07:43:54;2.22;;;1.95;;
56670;SDS011;42545;50.054;8.306;2023-07-22T07:46:22;1.98;;;1.75;;
56670;SDS011;42545;50.054;8.306;2023-07-22T07:48:51;3.05;;;2.17;;
56670;SDS011;42545;50.054;8.306;2023-07-22T07:51:19;5.00;;;3.60;;
56670;SDS011;42545;50.054;8.306;2023-07-22T07:53:47;2.75;;;2.30;;
56670;SDS011;42545;50.054;8.306;2023-07-22T07:56:15;3.33;;;2.53;;
56670;SDS011;42545;50.054;8.306;2023-07-22T07:58:47;3.88;;;2.60;;
56670;SDS011;42545;50.054;8.306;2023-07-22T08:01:16;4.78;;;3.47;;
56670;SDS011;42545;50.054;8.306;2023-07-22T08:03:43;3.10;;;2.38;;
56670;SDS011;42545;50.054;8.306;2023-07-22T08:06:11;3.50;;;2.70;;
56670;SDS011;42545;50.054;8.306;2023-07-22T08:08:40;4.93;;;2.47;;
56670;SDS011;42545;50.054;8.306;2023-07-22T08:11:07;2.92;;;2.20;;
56670;SDS011;42545;50.054;8.306;2023-07-22T08:13:35;2.38;;;2.03;;
56670;SDS011;42545;50.054;8.306;2023-07-22T08:16:04;3.58;;;2.92;;
56670;SDS011;42545;50.054;8.306;2023-07-22T08:18:33;3.33;;;2.35;;
56670;SDS011;42545;50.054;8.306;2023-07-22T08:21:01;2.83;;;2.30;;
56670;SDS011;42545;50.054;8.306;2023-07-22T08:23:29;3.20;;;2.40;;
56670;SDS011;42545;50.054;8.306;2023-07-22T08:25:58;3.50;;;2.90;;
56670;SDS011;42545;50.054;8.306;2023-07-22T08:28:25;2.78;;;2.28;;
56670;SDS011;42545;50.054;8.306;2023-07-22T08:30:53;2.33;;;2.10;;
56670;SDS011;42545;50.054;8.306;2023-07-22T08:33:23;2.90;;;2.20;;
56670;SDS011;42545;50.054;8.306;2023-07-22T08:35:52;2.75;;;2.30;;
56670;SDS011;42545;50.054;8.306;2023-07-22T08:38:18;2.17;;;1.80;;
56670;SDS011;42545;50.054;8.306;2023-07-22T08:40:48;3.00;;;2.40;;
56670;SDS011;42545;50.054;8.306;2023-07-22T08:43:16;2.60;;;2.30;;
56670;SDS011;42545;50.054;8.306;2023-07-22T08:45:47;2.70;;;1.90;;
56670;SDS011;42545;50.054;8.306;2023-07-22T08:48:16;2.97;;;2.45;;
56670;SDS011;42545;50.054;8.306;2023-07-22T08:50:46;2.97;;;2.35;;
56670;SDS011;42545;50.054;8.306;2023-07-22T08:53:16;3.33;;;2.20;;
56670;SDS011;42545;50.054;8.306;2023-07-22T08:58:14;2.20;;;1.90;;
56670;SDS011;42545;50.054;8.306;2023-07-22T09:00:42;3.45;;;2.80;;
56670;SDS011;42545;50.054;8.306;2023-07-22T09:03:10;3.75;;;2.67;;
56670;SDS011;42545;50.054;8.306;2023-07-22T09:05:37;3.60;;;2.42;;
56670;SDS011;42545;50.054;8.306;2023-07-22T09:08:07;3.72;;;2.72;;
56670;SDS011;42545;50.054;8.306;2023-07-22T09:10:37;6.88;;;4.18;;
56670;SDS011;42545;50.054;8.306;2023-07-22T09:13:04;4.65;;;3.10;;
56670;SDS011;42545;50.054;8.306;2023-07-22T09:15:35;5.75;;;3.42;;
56670;SDS011;42545;50.054;8.306;2023-07-22T09:18:03;3.60;;;2.60;;
56670;SDS011;42545;50.054;8.306;2023-07-22T09:20:31;7.25;;;4.13;;
56670;SDS011;42545;50.054;8.306;2023-07-22T09:22:59;4.25;;;3.00;;
56670;SDS011;42545;50.054;8.306;2023-07-22T09:25:29;3.78;;;2.60;;
56670;SDS011;42545;50.054;8.306;2023-07-22T09:27:58;3.25;;;2.58;;
56670;SDS011;42545;50.054;8.306;2023-07-22T09:30:27;2.20;;;2.00;;
56670;SDS011;42545;50.054;8.306;2023-07-22T09:32:56;3.95;;;2.97;;
56670;SDS011;42545;50.054;8.306;2023-07-22T09:35:27;3.85;;;2.30;;
56670;SDS011;42545;50.054;8.306;2023-07-22T09:37:55;2.58;;;2.20;;
56670;SDS011;42545;50.054;8.306;2023-07-22T09:40:23;4.25;;;2.53;;
56670;SDS011;42545;50.054;8.306;2023-07-22T09:42:55;2.70;;;2.23;;
56670;SDS011;42545;50.054;8.306;2023-07-22T09:45:27;3.45;;;2.70;;
56670;SDS011;42545;50.054;8.306;2023-07-22T09:50:25;3.70;;;2.90;;
56670;SDS011;42545;50.054;8.306;2023-07-22T09:52:54;3.05;;;2.42;;
56670;SDS011;42545;50.054;8.306;2023-07-22T09:55:24;3.47;;;2.58;;
56670;SDS011;42545;50.054;8.306;2023-07-22T09:57:55;5.32;;;3.20;;
56670;SDS011;42545;50.054;8.306;2023-07-22T10:00:23;2.88;;;2.60;;
56670;SDS011;42545;50.054;8.306;2023-07-22T10:02:53;3.75;;;2.67;;
56670;SDS011;42545;50.054;8.306;2023-07-22T10:05:23;2.97;;;2.50;;
56670;SDS011;42545;50.054;8.306;2023-07-22T10:07:54;3.42;;;3.00;;
56670;SDS011;42545;50.054;8.306;2023-07-22T10:12:52;4.18;;;3.15;;
56670;SDS011;42545;50.054;8.306;2023-07-22T10:15:23;4.07;;;2.80;;
56670;SDS011;42545;50.054;8.306;2023-07-22T10:20:24;3.25;;;2.45;;
56670;SDS011;42545;50.054;8.306;2023-07-22T10:23:01;3.55;;;2.60;;
56670;SDS011;42545;50.054;8.306;2023-07-22T10:25:29;4.10;;;2.65;;
56670;SDS011;42545;50.054;8.306;2023-07-22T10:27:58;3.15;;;2.50;;
56670;SDS011;42545;50.054;8.306;2023-07-22T10:30:27;3.08;;;2.40;;
56670;SDS011;42545;50.054;8.306;2023-07-22T10:33:09;2.72;;;2.30;;
56670;SDS011;42545;50.054;8.306;2023-07-22T10:36:01;4.35;;;3.38;;
56670;SDS011;42545;50.054;8.306;2023-07-22T10:38:36;4.95;;;3.38;;
56670;SDS011;42545;50.054;8.306;2023-07-22T10:41:11;4.35;;;3.25;;
56670;SDS011;42545;50.054;8.306;2023-07-22T10:43:40;4.95;;;2.63;;
56670;SDS011;42545;50.054;8.306;2023-07-22T10:46:08;4.30;;;2.70;;
56670;SDS011;42545;50.054;8.306;2023-07-22T10:48:37;3.85;;;2.45;;
56670;SDS011;42545;50.054;8.306;2023-07-22T10:51:07;3.20;;;2.90;;
56670;SDS011;42545;50.054;8.306;2023-07-22T10:53:38;5.65;;;2.85;;
56670;SDS011;42545;50.054;8.306;2023-07-22T10:56:13;4.22;;;2.78;;
56670;SDS011;42545;50.054;8.306;2023-07-22T10:58:59;4.35;;;2.80;;
56670;SDS011;42545;50.054;8.306;2023-07-22T11:01:35;4.47;;;2.95;;
56670;SDS011;42545;50.054;8.306;2023-07-22T11:04:05;4.72;;;2.83;;
56670;SDS011;42545;50.054;8.306;2023-07-22T11:06:36;4.38;;;2.55;;
56670;SDS011;42545;50.054;8.306;2023-07-22T11:12:05;5.35;;;2.78;;
56670;SDS011;42545;50.054;8.306;2023-07-22T11:14:37;4.53;;;2.80;;
56670;SDS011;42545;50.054;8.306;2023-07-22T11:17:08;3.03;;;2.50;;
56670;SDS011;42545;50.054;8.306;2023-07-22T11:19:36;2.50;;;2.13;;
56670;SDS011;42545;50.054;8.306;2023-07-22T11:22:04;4.15;;;2.80;;
56670;SDS011;42545;50.054;8.306;2023-07-22T11:24:32;2.25;;;2.03;;
56670;SDS011;42545;50.054;8.306;2023-07-22T11:27:01;2.65;;;2.13;;
56670;SDS011;42545;50.054;8.306;2023-07-22T11:29:29;3.47;;;2.17;;
56670;SDS011;42545;50.054;8.306;2023-07-22T11:31:59;2.70;;;2.30;;
56670;SDS011;42545;50.054;8.306;2023-07-22T11:34:26;3.03;;;2.45;;
56670;SDS011;42545;50.054;8.306;2023-07-22T11:36:54;3.58;;;2.72;;
56670;SDS011;42545;50.054;8.306;2023-07-22T11:39:23;4.23;;;2.87;;
56670;SDS011;42545;50.054;8.306;2023-07-22T11:41:55;3.55;;;2.75;;
56670;SDS011;42545;50.054;8.306;2023-07-22T11:44:26;3.85;;;2.67;;
56670;SDS011;42545;50.054;8.306;2023-07-22T11:46:55;4.03;;;2.85;;
56670;SDS011;42545;50.054;8.306;2023-07-22T11:49:26;3.60;;;2.90;;
56670;SDS011;42545;50.054;8.306;2023-07-22T11:51:54;2.88;;;2.28;;
56670;SDS011;42545;50.054;8.306;2023-07-22T11:54:31;3.08;;;2.60;;
56670;SDS011;42545;50.054;8.306;2023-07-22T11:57:09;2.92;;;2.28;;
56670;SDS011;42545;50.054;8.306;2023-07-22T11:59:37;3.80;;;2.78;;
56670;SDS011;42545;50.054;8.306;2023-07-22T12:02:05;4.00;;;2.70;;
56670;SDS011;42545;50.054;8.306;2023-07-22T12:04:35;3.40;;;2.65;;
56670;SDS011;42545;50.054;8.306;2023-07-22T12:07:02;5.95;;;3.30;;
56670;SDS011;42545;50.054;8.306;2023-07-22T12:09:30;3.35;;;2.65;;
56670;SDS011;42545;50.054;8.306;2023-07-22T12:11:57;6.07;;;3.33;;
56670;SDS011;42545;50.054;8.306;2023-07-22T12:14:32;3.00;;;2.42;;
56670;SDS011;42545;50.054;8.306;2023-07-22T12:17:01;3.65;;;2.83;;
56670;SDS011;42545;50.054;8.306;2023-07-22T12:19:28;2.45;;;2.20;;
56670;SDS011;42545;50.054;8.306;2023-07-22T12:21:57;2.85;;;2.47;;
56670;SDS011;42545;50.054;8.306;2023-07-22T12:24:24;3.33;;;2.20;;
56670;SDS011;42545;50.054;8.306;2023-07-22T12:26:53;4.70;;;2.85;;
56670;SDS011;42545;50.054;8.306;2023-07-22T12:29:20;4.75;;;3.03;;
56670;SDS011;42545;50.054;8.306;2023-07-22T12:31:48;4.45;;;3.15;;
56670;SDS011;42545;50.054;8.306;2023-07-22T12:34:15;3.30;;;2.55;;
56670;SDS011;42545;50.054;8.306;2023-07-22T12:36:42;3.38;;;2.13;;
56670;SDS011;42545;50.054;8.306;2023-07-22T12:39:11;3.92;;;2.85;;
56670;SDS011;42545;50.054;8.306;2023-07-22T12:41:39;2.55;;;2.17;;
56670;SDS011;42545;50.054;8.306;2023-07-22T12:44:09;3.35;;;2.78;;
56670;SDS011;42545;50.054;8.306;2023-07-22T12:46:45;4.90;;;2.83;;
56670;SDS011;42545;50.054;8.306;2023-07-22T12:49:15;3.33;;;2.38;;
56670;SDS011;42545;50.054;8.306;2023-07-22T12:51:42;3.00;;;2.40;;
56670;SDS011;42545;50.054;8.306;2023-07-22T12:54:10;6.35;;;3.00;;
56670;SDS011;42545;50.054;8.306;2023-07-22T12:56:37;4.63;;;2.83;;
56670;SDS011;42545;50.054;8.306;2023-07-22T12:59:04;3.67;;;2.70;;
56670;SDS011;42545;50.054;8.306;2023-07-22T13:01:31;3.42;;;2.42;;
56670;SDS011;42545;50.054;8.306;2023-07-22T13:03:59;3.13;;;2.47;;
56670;SDS011;42545;50.054;8.306;2023-07-22T13:06:27;3.40;;;2.60;;
56670;SDS011;42545;50.054;8.306;2023-07-22T13:08:59;3.97;;;2.67;;
56670;SDS011;42545;50.054;8.306;2023-07-22T13:11:30;4.07;;;2.80;;
56670;SDS011;42545;50.054;8.306;2023-07-22T13:13:58;3.45;;;2.65;;
56670;SDS011;42545;50.054;8.306;2023-07-22T13:16:24;2.78;;;2.00;;
56670;SDS011;42545;50.054;8.306;2023-07-22T13:18:54;3.45;;;2.35;;
56670;SDS011;42545;50.054;8.306;2023-07-22T13:21:20;5.93;;;3.03;;
56670;SDS011;42545;50.054;8.306;2023-07-22T13:23:48;3.60;;;2.90;;
56670;SDS011;42545;50.054;8.306;2023-07-22T13:26:15;3.35;;;2.60;;
56670;SDS011;42545;50.054;8.306;2023-07-22T13:28:43;5.07;;;2.78;;
56670;SDS011;42545;50.054;8.306;2023-07-22T13:31:11;3.08;;;2.47;;
56670;SDS011;42545;50.054;8.306;2023-07-22T13:33:38;4.95;;;3.17;;
56670;SDS011;42545;50.054;8.306;2023-07-22T13:36:06;4.95;;;2.95;;
56670;SDS011;42545;50.054;8.306;2023-07-22T13:38:34;4.88;;;3.60;;
56670;SDS011;42545;50.054;8.306;2023-07-22T13:41:01;5.85;;;3.20;;
56670;SDS011;42545;50.054;8.306;2023-07-22T13:43:29;5.55;;;3.35;;
56670;SDS011;42545;50.054;8.306;2023-07-22T13:45:58;3.80;;;2.50;;
56670;SDS011;42545;50.054;8.306;2023-07-22T13:48:25;6.13;;;4.15;;
56670;SDS011;42545;50.054;8.306;2023-07-22T13:50:53;7.30;;;3.60;;
56670;SDS011;42545;50.054;8.306;2023-07-22T13:53:19;4.80;;;3.20;;
56670;SDS011;42545;50.054;8.306;2023-07-22T13:55:46;5.03;;;3.13;;
56670;SDS011;42545;50.054;8.306;2023-07-22T13:58:15;3.78;;;2.78;;
56670;SDS011;42545;50.054;8.306;2023-07-22T14:00:42;5.38;;;2.90;;
56670;SDS011;42545;50.054;8.306;2023-07-22T14:03:10;3.97;;;2.75;;
56670;SDS011;42545;50.054;8.306;2023-07-22T14:05:37;3.60;;;2.97;;
56670;SDS011;42545;50.054;8.306;2023-07-22T14:08:04;3.97;;;2.90;;
56670;SDS011;42545;50.054;8.306;2023-07-22T14:10:30;3.00;;;2.40;;
56670;SDS011;42545;50.054;8.306;2023-07-22T14:12:57;3.58;;;2.95;;
56670;SDS011;42545;50.054;8.306;2023-07-22T14:15:24;3.67;;;2.60;;
56670;SDS011;42545;50.054;8.306;2023-07-22T14:17:51;2.97;;;2.53;;
56670;SDS011;42545;50.054;8.306;2023-07-22T14:20:20;3.42;;;2.40;;
56670;SDS011;42545;50.054;8.306;2023-07-22T14:22:47;3.35;;;2.60;;
56670;SDS011;42545;50.054;8.306;2023-07-22T14:25:15;4.40;;;2.97;;
56670;SDS011;42545;50.054;8.306;2023-07-22T14:27:42;3.35;;;2.78;;
56670;SDS011;42545;50.054;8.306;2023-07-22T14:30:09;4.45;;;3.10;;
56670;SDS011;42545;50.054;8.306;2023-07-22T14:32:36;2.45;;;2.25;;
56670;SDS011;42545;50.054;8.306;2023-07-22T14:35:03;3.50;;;2.30;;
56670;SDS011;42545;50.054;8.306;2023-07-22T14:37:32;3.40;;;2.50;;
56670;SDS011;42545;50.054;8.306;2023-07-22T14:40:00;3.75;;;2.70;;
56670;SDS011;42545;50.054;8.306;2023-07-22T14:42:27;4.18;;;2.60;;
56670;SDS011;42545;50.054;8.306;2023-07-22T14:44:54;3.10;;;2.42;;
56670;SDS011;42545;50.054;8.306;2023-07-22T14:47:21;3.67;;;2.78;;
56670;SDS011;42545;50.054;8.306;2023-07-22T14:49:48;3.97;;;2.70;;
56670;SDS011;42545;50.054;8.306;2023-07-22T14:52:15;2.83;;;2.13;;
56670;SDS011;42545;50.054;8.306;2023-07-22T14:54:43;2.70;;;2.20;;
56670;SDS011;42545;50.054;8.306;2023-07-22T14:57:10;5.25;;;2.70;;
56670;SDS011;42545;50.054;8.306;2023-07-22T14:59:36;3.65;;;2.95;;
56670;SDS011;42545;50.054;8.306;2023-07-22T15:02:03;6.93;;;3.17;;
56670;SDS011;42545;50.054;8.306;2023-07-22T15:04:31;3.13;;;2.55;;
56670;SDS011;42545;50.054;8.306;2023-07-22T15:06:58;2.70;;;2.33;;